createdAt,value
2023-01-28T00:00:58.731Z,96650.28
2023-01-28T00:03:26.264Z,96651.66
2023-01-28T00:05:55.118Z,96655.50
2023-01-28T00:08:22.584Z,96651.88
2023-01-28T00:10:50.083Z,96652.34
2023-01-28T00:13:17.567Z,96652.28
2023-01-28T00:15:46.459Z,96657.00
2023-01-28T00:18:13.915Z,96660.72
2023-01-28T00:20:41.373Z,96666.78
2023-01-28T00:23:09.033Z,96665.59
2023-01-28T00:25:36.478Z,96663.91
2023-01-28T00:28:03.955Z,96658.69
2023-01-28T00:30:31.433Z,96669.13
2023-01-28T00:33:00.216Z,96661.91
2023-01-28T00:35:27.667Z,96666.91
2023-01-28T00:37:55.115Z,96666.56
2023-01-28T00:40:22.565Z,96665.69
2023-01-28T00:42:50.073Z,96658.75
2023-01-28T00:45:18.088Z,96659.50
2023-01-28T00:47:45.793Z,96654.75
2023-01-28T00:50:15.059Z,96657.31
2023-01-28T00:52:42.541Z,96664.09
2023-01-28T00:55:10.491Z,96668.97
2023-01-28T00:57:37.996Z,96667.75
2023-01-28T01:00:06.940Z,96671.31
2023-01-28T01:02:34.921Z,96671.00
2023-01-28T01:05:02.489Z,96670.41
2023-01-28T01:07:41.421Z,96667.47
2023-01-28T01:10:10.468Z,96657.41
2023-01-28T01:12:38.479Z,96660.47
2023-01-28T01:15:08.809Z,96671.06
2023-01-28T01:17:37.564Z,96663.09
2023-01-28T01:20:05.919Z,96677.22
2023-01-28T01:22:36.100Z,96677.25
2023-01-28T01:25:04.707Z,96686.75
2023-01-28T01:27:32.538Z,96683.44
2023-01-28T01:30:00.362Z,96678.22
2023-01-28T01:32:31.255Z,96690.75
2023-01-28T01:34:59.152Z,96694.16
2023-01-28T01:37:26.662Z,96691.38
2023-01-28T01:39:55.962Z,96690.31
2023-01-28T01:42:23.497Z,96684.25
2023-01-28T01:44:57.499Z,96691.25
2023-01-28T01:47:29.011Z,96690.03
2023-01-28T01:49:57.347Z,96696.66
2023-01-28T01:52:29.288Z,96701.81
2023-01-28T01:55:02.663Z,96694.59
2023-01-28T01:57:34.441Z,96701.56
2023-01-28T02:00:06.769Z,96691.09
2023-01-28T02:02:37.935Z,96690.53
2023-01-28T02:05:06.560Z,96695.66
2023-01-28T02:07:34.454Z,96702.88
2023-01-28T02:10:04.197Z,96695.22
2023-01-28T02:12:36.056Z,96694.56
2023-01-28T02:15:07.089Z,96697.34
2023-01-28T02:17:35.315Z,96697.66
2023-01-28T02:20:05.336Z,96692.63
2023-01-28T02:22:59.010Z,96699.44
2023-01-28T02:25:48.368Z,96694.06
2023-01-28T02:28:28.472Z,96705.16
2023-01-28T02:31:02.932Z,96711.91
2023-01-28T02:33:36.580Z,96718.94
2023-01-28T02:36:14.699Z,96717.59
2023-01-28T02:38:46.829Z,96727.00
2023-01-28T02:41:22.433Z,96729.84
2023-01-28T02:43:51.675Z,96735.13
2023-01-28T02:46:40.847Z,96735.28
2023-01-28T02:49:12.624Z,96726.31
2023-01-28T02:51:59.344Z,96721.28
2023-01-28T02:54:36.964Z,96725.94
2023-01-28T02:57:17.579Z,96735.03
2023-01-28T02:59:52.643Z,96724.97
2023-01-28T03:02:28.614Z,96728.34
2023-01-28T03:05:04.130Z,96734.91
2023-01-28T03:07:34.528Z,96725.66
2023-01-28T03:10:06.104Z,96733.00
2023-01-28T03:12:54.297Z,96731.38
2023-01-28T03:15:44.123Z,96714.09
2023-01-28T03:18:34.342Z,96722.31
2023-01-28T03:21:25.854Z,96726.69
2023-01-28T03:24:18.161Z,96731.00
2023-01-28T03:27:21.273Z,96727.16
2023-01-28T03:30:09.259Z,96730.19
2023-01-28T03:32:57.249Z,96734.09
2023-01-28T03:35:46.740Z,96729.06
2023-01-28T03:38:21.028Z,96724.66
2023-01-28T03:40:53.008Z,96739.22
2023-01-28T03:43:20.608Z,96719.53
2023-01-28T03:45:51.253Z,96729.94
2023-01-28T03:48:20.369Z,96730.41
2023-01-28T03:50:48.106Z,96735.28
2023-01-28T03:53:16.999Z,96742.84
2023-01-28T03:55:45.219Z,96737.81
2023-01-28T03:58:14.446Z,96733.63
2023-01-28T04:00:43.395Z,96741.50
2023-01-28T04:03:16.386Z,96739.00
2023-01-28T04:05:46.104Z,96732.66
2023-01-28T04:08:14.527Z,96742.44
2023-01-28T04:10:43.812Z,96741.88
2023-01-28T04:13:13.181Z,96732.88
2023-01-28T04:15:41.030Z,96740.59
2023-01-28T04:18:08.469Z,96746.56
2023-01-28T04:20:36.058Z,96748.91
2023-01-28T04:23:04.897Z,96740.78
2023-01-28T04:25:32.649Z,96746.13
2023-01-28T04:28:00.164Z,96754.91
2023-01-28T04:30:28.161Z,96756.38
2023-01-28T04:32:55.720Z,96764.09
2023-01-28T04:35:23.192Z,96771.22
2023-01-28T04:37:50.650Z,96774.19
2023-01-28T04:40:19.793Z,96769.66
2023-01-28T04:42:54.087Z,96763.00
2023-01-28T04:45:21.682Z,96767.75
2023-01-28T04:47:49.425Z,96768.19
2023-01-28T04:50:17.951Z,96770.38
2023-01-28T04:52:45.421Z,96772.56
2023-01-28T04:55:13.228Z,96776.25
2023-01-28T04:57:42.167Z,96772.03
2023-01-28T05:00:10.646Z,96777.66
2023-01-28T05:02:38.099Z,96772.41
2023-01-28T05:05:08.871Z,96770.19
2023-01-28T05:07:36.989Z,96772.69
2023-01-28T05:10:05.220Z,96777.50
2023-01-28T05:12:34.088Z,96776.50
2023-01-28T05:15:03.368Z,96768.81
2023-01-28T05:17:30.885Z,96774.03
2023-01-28T05:19:58.396Z,96767.34
2023-01-28T05:22:25.872Z,96767.13
2023-01-28T05:24:53.340Z,96774.34
2023-01-28T05:27:21.038Z,96769.34
2023-01-28T05:29:48.527Z,96771.19
2023-01-28T05:32:17.437Z,96774.06
2023-01-28T05:34:44.986Z,96769.94
2023-01-28T05:37:12.506Z,96768.78
2023-01-28T05:39:40.090Z,96769.59
2023-01-28T05:42:07.617Z,96764.22
2023-01-28T05:44:35.064Z,96764.88
2023-01-28T05:47:02.541Z,96768.31
2023-01-28T05:49:31.368Z,96769.16
2023-01-28T05:51:58.877Z,96769.53
2023-01-28T05:54:26.323Z,96782.91
2023-01-28T05:56:53.856Z,96781.44
2023-01-28T05:59:21.320Z,96783.13
2023-01-28T06:01:49.491Z,96792.38
2023-01-28T06:04:18.781Z,96784.31
2023-01-28T06:06:47.693Z,96779.03
2023-01-28T06:09:15.357Z,96776.31
2023-01-28T06:11:42.832Z,96775.56
2023-01-28T06:14:10.297Z,96775.47
2023-01-28T06:16:37.943Z,96779.94
2023-01-28T06:19:05.412Z,96784.50
2023-01-28T06:21:32.878Z,96793.25
2023-01-28T06:24:01.690Z,96795.22
2023-01-28T06:26:29.166Z,96800.47
2023-01-28T06:28:56.620Z,96801.75
2023-01-28T06:31:24.076Z,96802.56
2023-01-28T06:33:51.535Z,96810.22
2023-01-28T06:36:18.993Z,96810.06
2023-01-28T06:38:46.431Z,96814.94
2023-01-28T06:41:15.248Z,96810.50
2023-01-28T06:43:42.706Z,96817.84
2023-01-28T06:46:10.288Z,96829.38
2023-01-28T06:48:37.762Z,96823.69
2023-01-28T06:51:05.796Z,96833.81
2023-01-28T06:53:33.270Z,96837.72
2023-01-28T06:56:00.703Z,96840.63
2023-01-28T06:58:29.524Z,96838.50
2023-01-28T07:00:56.975Z,96834.59
2023-01-28T07:03:24.432Z,96840.50
2023-01-28T07:05:51.900Z,96841.31
2023-01-28T07:08:19.380Z,96844.94
2023-01-28T07:10:46.932Z,96849.34
2023-01-28T07:13:14.383Z,96852.28
2023-01-28T07:15:43.155Z,96852.44
2023-01-28T07:18:10.617Z,96851.78
2023-01-28T07:20:38.071Z,96863.38
2023-01-28T07:23:05.611Z,96863.47
2023-01-28T07:25:33.059Z,96860.75
2023-01-28T07:28:00.585Z,96867.13
2023-01-28T07:30:28.139Z,96871.50
2023-01-28T07:32:58.997Z,96866.78
2023-01-28T07:35:27.726Z,96867.31
2023-01-28T07:37:56.047Z,96872.88
2023-01-28T07:40:24.327Z,96873.22
2023-01-28T07:42:52.565Z,96868.44
2023-01-28T07:45:20.047Z,96870.50
2023-01-28T07:47:54.665Z,96871.06
2023-01-28T07:50:23.673Z,96880.09
2023-01-28T07:52:51.186Z,96880.78
2023-01-28T07:55:19.102Z,96877.69
2023-01-28T07:57:51.484Z,96874.66
2023-01-28T08:00:20.193Z,96878.28
2023-01-28T08:02:48.835Z,96880.09
2023-01-28T08:05:18.100Z,96880.84
2023-01-28T08:07:48.463Z,96882.81
2023-01-28T08:10:17.183Z,96876.06
2023-01-28T08:12:52.348Z,96882.97
2023-01-28T08:15:19.972Z,96883.16
2023-01-28T08:17:47.437Z,96880.97
2023-01-28T08:20:15.859Z,96886.31
2023-01-28T08:22:43.597Z,96889.28
2023-01-28T08:25:12.429Z,96888.03
2023-01-28T08:27:39.935Z,96899.63
2023-01-28T08:30:09.161Z,96904.28
2023-01-28T08:32:37.165Z,96895.69
2023-01-28T08:35:04.974Z,96902.31
2023-01-28T08:37:32.438Z,96904.88
2023-01-28T08:39:59.895Z,96902.56
2023-01-28T08:42:28.689Z,96899.22
2023-01-28T08:44:56.206Z,96899.47
2023-01-28T08:47:23.638Z,96890.09
2023-01-28T08:49:51.081Z,96885.13
2023-01-28T08:52:18.551Z,96888.69
2023-01-28T08:54:45.989Z,96892.06
2023-01-28T08:57:13.451Z,96893.56
2023-01-28T08:59:45.037Z,96894.59
2023-01-28T09:02:30.394Z,96890.00
2023-01-28T09:04:59.151Z,96900.78
2023-01-28T09:07:26.623Z,96910.91
2023-01-28T09:09:54.092Z,96904.38
2023-01-28T09:12:21.579Z,96905.50
2023-01-28T09:14:50.408Z,96891.63
2023-01-28T09:17:17.912Z,96905.19
2023-01-28T09:19:45.422Z,96894.72
2023-01-28T09:22:13.057Z,96905.88
2023-01-28T09:24:40.493Z,96913.06
2023-01-28T09:27:08.056Z,96918.75
2023-01-28T09:29:35.925Z,96907.66
2023-01-28T09:32:05.127Z,96915.59
2023-01-28T09:34:32.754Z,96909.13
2023-01-28T09:37:00.229Z,96911.06
2023-01-28T09:39:28.453Z,96905.56
2023-01-28T09:42:09.713Z,96910.44
2023-01-28T09:44:54.058Z,96916.56
2023-01-28T09:47:27.649Z,96915.59
2023-01-28T09:49:59.153Z,96919.44
2023-01-28T09:52:27.778Z,96926.03
2023-01-28T09:55:00.796Z,96919.84
2023-01-28T09:57:37.644Z,96929.63
2023-01-28T10:00:15.701Z,96937.53
2023-01-28T10:02:59.829Z,96929.63
2023-01-28T10:05:35.528Z,96944.25
2023-01-28T10:08:15.190Z,96932.16
2023-01-28T10:10:47.936Z,96926.09
2023-01-28T10:13:25.113Z,96935.25
2023-01-28T10:16:06.789Z,96933.31
2023-01-28T10:18:43.047Z,96936.84
2023-01-28T10:21:16.435Z,96932.03
2023-01-28T10:23:53.918Z,96931.69
2023-01-28T10:26:26.733Z,96932.22
2023-01-28T10:28:57.959Z,96915.78
2023-01-28T10:31:33.014Z,96922.78
2023-01-28T10:34:04.355Z,96926.03
2023-01-28T10:36:31.854Z,96927.34
2023-01-28T10:38:59.698Z,96931.84
2023-01-28T10:41:27.222Z,96935.88
2023-01-28T10:43:54.715Z,96929.78
2023-01-28T10:46:27.945Z,96935.28
2023-01-28T10:49:00.798Z,96933.13
2023-01-28T10:51:37.159Z,96932.03
2023-01-28T10:54:05.962Z,96924.41
2023-01-28T10:56:35.728Z,96926.53
2023-01-28T10:59:05.266Z,96915.69
2023-01-28T11:01:45.229Z,96915.00
2023-01-28T11:04:19.717Z,96918.00
2023-01-28T11:06:57.329Z,96917.72
2023-01-28T11:09:26.662Z,96920.66
2023-01-28T11:11:54.248Z,96912.91
2023-01-28T11:14:24.067Z,96920.00
2023-01-28T11:16:53.949Z,96919.53
2023-01-28T11:19:26.838Z,96925.16
2023-01-28T11:21:59.461Z,96923.81
2023-01-28T11:24:31.300Z,96924.31
2023-01-28T11:27:01.779Z,96921.59
2023-01-28T11:29:32.823Z,96931.69
2023-01-28T11:32:01.163Z,96930.16
2023-01-28T11:34:30.505Z,96928.44
2023-01-28T11:37:05.729Z,96932.78
2023-01-28T11:39:33.323Z,96916.44
2023-01-28T11:42:16.948Z,96918.84
2023-01-28T11:44:44.956Z,96921.78
2023-01-28T11:47:25.646Z,96916.13
2023-01-28T11:50:06.826Z,96916.53
2023-01-28T11:53:06.045Z,96916.63
2023-01-28T11:55:59.515Z,96923.25
2023-01-28T11:58:38.673Z,96916.16
2023-01-28T12:01:13.415Z,96908.47
2023-01-28T12:03:56.088Z,96903.09
2023-01-28T12:06:35.814Z,96908.59
2023-01-28T12:09:15.144Z,96913.41
2023-01-28T12:12:14.857Z,96924.19
2023-01-28T12:15:08.278Z,96909.16
2023-01-28T12:17:51.634Z,96904.22
2023-01-28T12:20:26.945Z,96908.50
2023-01-28T12:23:12.094Z,96896.00
2023-01-28T12:25:59.521Z,96891.69
2023-01-28T12:28:40.105Z,96890.00
2023-01-28T12:31:23.965Z,96900.72
2023-01-28T12:34:19.386Z,96897.09
2023-01-28T12:36:57.058Z,96901.78
2023-01-28T12:39:35.068Z,96897.59
2023-01-28T12:42:11.318Z,96908.59
2023-01-28T12:44:44.361Z,96904.97
2023-01-28T12:47:16.920Z,96908.09
2023-01-28T12:49:48.828Z,96901.03
2023-01-28T12:52:23.951Z,96904.94
2023-01-28T12:54:59.339Z,96902.53
2023-01-28T12:57:30.515Z,96906.53
2023-01-28T13:00:16.930Z,96903.75
2023-01-28T13:02:51.236Z,96895.31
2023-01-28T13:05:23.876Z,96898.56
2023-01-28T13:07:57.651Z,96904.56
2023-01-28T13:10:29.750Z,96910.16
2023-01-28T13:13:00.019Z,96909.63
2023-01-28T13:15:27.514Z,96913.50
2023-01-28T13:17:56.974Z,96917.84
2023-01-28T13:20:37.517Z,96914.34
2023-01-28T13:23:07.572Z,96911.28
2023-01-28T13:25:35.794Z,96911.75
2023-01-28T13:28:06.670Z,96915.50
2023-01-28T13:30:37.142Z,96911.16
2023-01-28T13:33:06.532Z,96920.34
2023-01-28T13:35:36.731Z,96921.59
2023-01-28T13:38:10.141Z,96922.31
2023-01-28T13:40:40.489Z,96924.69
2023-01-28T13:43:28.814Z,96920.00
2023-01-28T13:45:59.484Z,96921.84
2023-01-28T13:48:32.765Z,96932.94
2023-01-28T13:51:01.262Z,96932.94
2023-01-28T13:53:41.057Z,96931.16
2023-01-28T13:56:18.899Z,96930.66
2023-01-28T13:59:11.402Z,96950.94
2023-01-28T14:02:17.696Z,96942.22
2023-01-28T14:05:09.514Z,96941.88
2023-01-28T14:08:10.623Z,96942.84
2023-01-28T14:10:51.075Z,96940.25
2023-01-28T14:13:32.160Z,96937.47
2023-01-28T14:16:20.485Z,96943.63
2023-01-28T14:18:49.880Z,96951.94
2023-01-28T14:21:20.937Z,96951.47
2023-01-28T14:23:50.786Z,96946.75
2023-01-28T14:26:32.739Z,96949.50
2023-01-28T14:29:13.981Z,96952.78
2023-01-28T14:31:43.096Z,96947.59
2023-01-28T14:34:20.041Z,96954.34
2023-01-28T14:36:49.793Z,96953.72
2023-01-28T14:39:19.123Z,96955.03
2023-01-28T14:41:49.529Z,96959.91
2023-01-28T14:44:28.523Z,96965.53
2023-01-28T14:47:11.409Z,96963.47
2023-01-28T14:49:49.837Z,96959.78
2023-01-28T14:52:44.156Z,96965.66
2023-01-28T14:55:27.369Z,96957.19
2023-01-28T14:57:57.716Z,96960.41
2023-01-28T15:00:27.735Z,96961.19
2023-01-28T15:02:56.641Z,96969.03
2023-01-28T15:05:25.766Z,96973.13
2023-01-28T15:07:53.948Z,96970.63
2023-01-28T15:10:25.451Z,96984.19
2023-01-28T15:12:56.247Z,96981.47
2023-01-28T15:15:32.276Z,96986.56
2023-01-28T15:18:04.207Z,96991.88
2023-01-28T15:20:32.484Z,96994.66
2023-01-28T15:23:02.669Z,96984.03
2023-01-28T15:25:31.103Z,96991.34
2023-01-28T15:28:02.324Z,96996.00
2023-01-28T15:30:32.073Z,97000.25
2023-01-28T15:33:03.482Z,97003.16
2023-01-28T15:35:31.302Z,97000.66
2023-01-28T15:37:58.906Z,97003.03
2023-01-28T15:40:26.914Z,97005.34
2023-01-28T15:42:58.243Z,97004.50
2023-01-28T15:45:29.186Z,97015.44
2023-01-28T15:48:08.791Z,97019.91
2023-01-28T15:50:36.453Z,97010.28
2023-01-28T15:53:10.999Z,97011.66
2023-01-28T15:55:40.813Z,97014.47
2023-01-28T15:58:18.898Z,97016.19
2023-01-28T16:00:47.254Z,97018.97
2023-01-28T16:03:21.555Z,97026.44
2023-01-28T16:05:59.495Z,97027.66
2023-01-28T16:08:33.278Z,97025.22
2023-01-28T16:11:00.887Z,97030.06
2023-01-28T16:13:29.908Z,97030.72
2023-01-28T16:15:58.711Z,97033.41
2023-01-28T16:18:39.678Z,97033.00
2023-01-28T16:21:10.441Z,97044.00
2023-01-28T16:23:39.678Z,97045.16
2023-01-28T16:26:22.184Z,97042.31
2023-01-28T16:28:49.857Z,97043.56
2023-01-28T16:31:17.512Z,97046.44
2023-01-28T16:33:46.659Z,97057.97
2023-01-28T16:36:15.966Z,97060.69
2023-01-28T16:38:43.499Z,97067.16
2023-01-28T16:41:16.732Z,97075.63
2023-01-28T16:43:44.228Z,97069.44
2023-01-28T16:46:13.371Z,97062.78
2023-01-28T16:48:40.849Z,97067.94
2023-01-28T16:51:17.020Z,97063.97
2023-01-28T16:53:45.865Z,97057.56
2023-01-28T16:56:35.803Z,97061.38
2023-01-28T16:59:03.386Z,97069.94
2023-01-28T17:01:30.840Z,97064.19
2023-01-28T17:03:58.476Z,97065.53
2023-01-28T17:06:27.437Z,97070.13
2023-01-28T17:08:54.887Z,97068.72
2023-01-28T17:11:22.349Z,97077.16
2023-01-28T17:13:49.802Z,97074.66
2023-01-28T17:16:17.747Z,97066.72
2023-01-28T17:18:46.905Z,97073.66
2023-01-28T17:21:16.031Z,97076.34
2023-01-28T17:23:45.350Z,97071.22
2023-01-28T17:26:15.037Z,97070.13
2023-01-28T17:28:42.956Z,97075.69
2023-01-28T17:31:12.895Z,97076.16
2023-01-28T17:33:40.840Z,97072.25
2023-01-28T17:36:09.270Z,97065.63
2023-01-28T17:38:36.766Z,97071.25
2023-01-28T17:41:07.474Z,97074.16
2023-01-28T17:43:35.279Z,97080.56
2023-01-28T17:46:11.428Z,97083.19
2023-01-28T17:48:38.955Z,97071.53
2023-01-28T17:51:06.851Z,97079.00
2023-01-28T17:53:34.315Z,97087.34
2023-01-28T17:56:01.908Z,97089.81
2023-01-28T17:58:30.856Z,97087.56
2023-01-28T18:00:58.397Z,97086.00
2023-01-28T18:03:25.882Z,97084.91
2023-01-28T18:06:00.328Z,97088.72
2023-01-28T18:08:28.086Z,97075.59
2023-01-28T18:10:56.065Z,97076.69
2023-01-28T18:13:23.655Z,97087.28
2023-01-28T18:15:52.461Z,97091.63
2023-01-28T18:18:19.903Z,97092.28
2023-01-28T18:20:47.352Z,97089.25
2023-01-28T18:23:14.806Z,97087.56
2023-01-28T18:25:42.267Z,97087.63
2023-01-28T18:28:09.707Z,97086.41
2023-01-28T18:30:37.214Z,97088.09
2023-01-28T18:33:06.085Z,97087.78
2023-01-28T18:35:33.596Z,97072.72
2023-01-28T18:38:02.510Z,97076.06
2023-01-28T18:40:30.071Z,97076.50
2023-01-28T18:42:57.549Z,97081.56
2023-01-28T18:45:25.021Z,97078.25
2023-01-28T18:47:52.484Z,97077.13
2023-01-28T18:50:21.348Z,97082.66
2023-01-28T18:52:48.798Z,97083.31
2023-01-28T18:55:16.581Z,97082.97
2023-01-28T18:57:44.172Z,97083.38
2023-01-28T19:00:12.700Z,97095.81
2023-01-28T19:02:40.157Z,97096.13
2023-01-28T19:05:08.006Z,97094.53
2023-01-28T19:07:36.803Z,97087.13
2023-01-28T19:10:04.753Z,97098.13
2023-01-28T19:12:32.218Z,97092.75
2023-01-28T19:14:59.675Z,97101.06
2023-01-28T19:17:27.131Z,97092.00
2023-01-28T19:19:54.583Z,97094.75
2023-01-28T19:22:22.019Z,97092.00
2023-01-28T19:24:50.831Z,97098.69
2023-01-28T19:27:18.292Z,97104.28
2023-01-28T19:29:45.727Z,97109.63
2023-01-28T19:32:13.166Z,97109.63
2023-01-28T19:34:40.648Z,97114.91
2023-01-28T19:37:08.384Z,97122.19
2023-01-28T19:39:36.235Z,97121.22
2023-01-28T19:42:05.029Z,97119.53
2023-01-28T19:44:34.056Z,97129.78
2023-01-28T19:47:02.219Z,97133.84
2023-01-28T19:49:29.792Z,97131.19
2023-01-28T19:51:57.278Z,97143.34
2023-01-28T19:54:24.782Z,97137.69
2023-01-28T19:56:52.422Z,97137.13
2023-01-28T19:59:21.247Z,97141.28
2023-01-28T20:01:48.844Z,97140.63
2023-01-28T20:04:16.373Z,97139.53
2023-01-28T20:06:43.922Z,97137.44
2023-01-28T20:09:16.005Z,97146.16
2023-01-28T20:11:43.669Z,97158.00
2023-01-28T20:14:29.124Z,97149.69
2023-01-28T20:16:56.660Z,97148.47
2023-01-28T20:19:24.169Z,97146.47
2023-01-28T20:21:52.692Z,97140.34
2023-01-28T20:24:20.243Z,97146.16
2023-01-28T20:26:47.824Z,97150.16
2023-01-28T20:29:18.415Z,97158.22
2023-01-28T20:32:00.878Z,97163.66
2023-01-28T20:34:35.157Z,97172.72
2023-01-28T20:37:03.217Z,97174.06
2023-01-28T20:39:30.758Z,97167.72
2023-01-28T20:41:58.340Z,97162.56
2023-01-28T20:44:26.641Z,97166.47
2023-01-28T20:46:55.444Z,97170.63
2023-01-28T20:49:22.927Z,97173.47
2023-01-28T20:51:50.419Z,97175.09
2023-01-28T20:54:18.667Z,97180.22
2023-01-28T20:56:46.191Z,97183.91
2023-01-28T20:59:13.852Z,97185.38
2023-01-28T21:01:41.602Z,97192.50
2023-01-28T21:04:10.922Z,97191.66
2023-01-28T21:06:39.796Z,97195.88
2023-01-28T21:09:07.932Z,97192.22
2023-01-28T21:11:35.565Z,97200.41
2023-01-28T21:14:03.095Z,97200.84
2023-01-28T21:16:30.574Z,97205.34
2023-01-28T21:18:58.071Z,97197.16
2023-01-28T21:21:29.163Z,97197.00
2023-01-28T21:23:59.735Z,97193.38
2023-01-28T21:26:27.733Z,97201.81
2023-01-28T21:28:56.014Z,97194.72
2023-01-28T21:31:26.128Z,97200.94
2023-01-28T21:33:55.775Z,97198.31
2023-01-28T21:36:24.578Z,97196.50
2023-01-28T21:38:55.031Z,97201.63
2023-01-28T21:41:22.678Z,97205.63
2023-01-28T21:43:52.047Z,97196.13
2023-01-28T21:46:19.659Z,97206.94
2023-01-28T21:48:47.865Z,97205.34
2023-01-28T21:51:33.008Z,97194.38
2023-01-28T21:54:02.597Z,97201.06
2023-01-28T21:56:30.063Z,97199.03
2023-01-28T21:59:15.136Z,97196.41
2023-01-28T22:01:44.049Z,97185.00
2023-01-28T22:04:11.589Z,97192.94
2023-01-28T22:06:39.084Z,97197.28
2023-01-28T22:09:11.606Z,97195.09
2023-01-28T22:11:39.809Z,97194.53
2023-01-28T22:14:07.857Z,97197.00
2023-01-28T22:16:35.725Z,97192.13
2023-01-28T22:19:03.234Z,97196.97
2023-01-28T22:21:31.111Z,97205.28
2023-01-28T22:23:58.907Z,97219.00
2023-01-28T22:26:27.804Z,97198.25
2023-01-28T22:28:55.324Z,97198.53
2023-01-28T22:31:23.018Z,97213.66
2023-01-28T22:33:50.545Z,97201.22
2023-01-28T22:36:18.026Z,97201.69
2023-01-28T22:38:46.571Z,97192.88
2023-01-28T22:41:18.931Z,97193.66
2023-01-28T22:43:47.999Z,97192.84
2023-01-28T22:46:15.893Z,97198.38
2023-01-28T22:48:44.205Z,97198.13
2023-01-28T22:51:16.434Z,97191.59
2023-01-28T22:53:44.612Z,97189.75
2023-01-28T22:56:12.343Z,97193.94
2023-01-28T22:58:39.928Z,97200.88
2023-01-28T23:01:09.009Z,97193.47
2023-01-28T23:03:37.045Z,97186.00
2023-01-28T23:06:05.990Z,97176.25
2023-01-28T23:08:34.282Z,97185.13
2023-01-28T23:11:02.868Z,97188.03
2023-01-28T23:13:52.806Z,97195.00
2023-01-28T23:16:39.402Z,97203.38
2023-01-28T23:19:24.717Z,97202.28
2023-01-28T23:22:11.975Z,97207.34
2023-01-28T23:24:39.480Z,97221.38
2023-01-28T23:27:06.953Z,97226.19
2023-01-28T23:29:34.426Z,97222.69
2023-01-28T23:32:06.307Z,97230.59
2023-01-28T23:34:35.792Z,97223.59
2023-01-28T23:37:04.170Z,97226.28
2023-01-28T23:39:31.653Z,97219.41
2023-01-28T23:41:59.159Z,97220.22
2023-01-28T23:44:27.631Z,97210.09
2023-01-28T23:46:56.388Z,97204.38
2023-01-28T23:49:25.275Z,97203.06
2023-01-28T23:51:52.741Z,97217.78
2023-01-28T23:54:20.278Z,97223.00
2023-01-28T23:56:47.855Z,97221.44
2023-01-28T23:59:15.333Z,97229.06
